Shipps Bend, Tennessee
Current Conditions -  °F | °C
As of 8:15 PM on Thursday 20 Nov 2014 (Local Time) from KMRC Reporting Station
Clear Clear  
Wind Chill: 30°   Ceiling: Unl
Heat Index: 30°   Visibility: 10mi
Dew Point: 28°   Wind: 3mph
Humidity: 93%   Direction: 200°SSW
Pressure: 30.25"   Gusts: NA
Location:  35.7514°N, 87.5392°W
Report Text: KMRC 210215Z AUTO 20003KT 10SM CLR M01/M02 A3025 RMK
Loading
Personal Weather Stations






























Interactive Weather Map New forecast layout! Learn more

10-Day Weather Forecast

Advertisements
Track Severe Weather on mobile